LFPOLFRG

Guest
Details From LFPO - Paris Orly
To LFRG - Deauville Saint Gatien
Flight Number -
Tags generated
Created
Modified
Stats Distance 95 nm / 176 km
Max Altitude 12,200 ft / 3,719 m
Waypoints 3
Social Downloads 6
Likes 0
Share VATSIM

Download

Looking for another format? Having issues loading an existing format? Contact us
Advertisement - Login to hide

Notes

Basic altitude profile: - Ascent Rate: 2500ft/min - Ascent Speed: 250kts - Cruise Altitude: 35000ft - Cruise Speed: 420kts - Descent Rate: 1500ft/min - Descent Speed: 250kts

Route

LFPO BAMES LFRG

ID Type Via Altitude Latitude Longitude Leg Dist Tot Dist Heading (true) Name
O LFPO APT - 0 ft / 0 m 48.72636˚ 2.36703˚ - 0 nm - Paris Orly
BAMES FIX - 12,200 ft / 3,719 m 48.97528˚ 1.48611˚ 37 nm 37 nm 294° / 293° -
O LFRG APT - 0 ft / 0 m 49.36530˚ 0.15432˚ 57 nm 95 nm 295° / 294° Deauville Saint Gatien

Altitude Profile

Advertisement - Login to hide

LFPO

Details ICAO LFPO (ORY)
Name Paris Orly
Region France
Timezone Europe/Paris (UTC+2.0)
Stats Elevation 291 ft / 89 m (AMSL)
Location 48.726360° 2.367029°
Runways 3
Magnetic Variation 0.658° E

METAR

LFPO 220230Z 28004KT CAVOK 12/11 Q1011 NOSIG

Decode

TAF

TAF LFPO 212300Z 2200/2306 30005KT CAVOK TEMPO 2212/2218 -SHRA SCT040TCU PROB30 TEMPO 2214/2218 33010G20KT 3000 -TSRA SCT035CB TEMPO 2300/2306 4000 BR BKN008

Decode

Departure Runways

ID Width Length Bearing (true) Bearing (mag) Surface Threshold Offset Overrun Length
02 197 ft / 60 m 7,873 ft / 2,400 m 18.29° 17.63° Concrete 0 ft / 0 m 0 ft / 0 m
06 148 ft / 45 m 11,952 ft / 3,643 m 61.78° 61.12° Asphalt 984 ft / 300 m 197 ft / 60 m
08 148 ft / 45 m 10,868 ft / 3,313 m 74.36° 73.70° Concrete 0 ft / 0 m 1,050 ft / 320 m
20 197 ft / 60 m 7,873 ft / 2,400 m 198.30° 197.64° Concrete 0 ft / 0 m 0 ft / 0 m
24 148 ft / 45 m 11,952 ft / 3,643 m 241.81° 241.15° Asphalt 0 ft / 0 m 197 ft / 60 m
26 148 ft / 45 m 10,868 ft / 3,313 m 254.39° 253.73° Concrete 1,427 ft / 435 m 0 ft / 0 m

LFRG

Details ICAO LFRG (DOL)
Name Deauville Saint Gatien
Region France
Timezone Europe/Paris (UTC+2.0)
Stats Elevation 479 ft / 146 m (AMSL)
Location 49.365296° 0.154324°
Runways 1
Magnetic Variation 0.082° W

METAR

LFRG 220230Z AUTO 35002KT 8000 NSC 09/08 Q1013

Decode

TAF

Not found

Destination Runways

ID Width Length Bearing (true) Bearing (mag) Surface Threshold Offset Overrun Length
12 148 ft / 45 m 8,344 ft / 2,543 m 117.22° 117.30° Asphalt 1,476 ft / 450 m 0 ft / 0 m
30 148 ft / 45 m 8,344 ft / 2,543 m 297.25° 297.33° Asphalt 1,378 ft / 420 m 0 ft / 0 m

Approach Navaids

Runway Type Ident Frequency Range Bearing (true) Bearing (mag) Slope Elevation
30 Localiser DV 111.55 MHz 18 nm / 33 km 297.22° 297.30° - 479 ft / 146 m (AMSL)
30 Glidescope DV 111.55 MHz 10 nm / 19 km 297.23° 297.32° 3.00° 479 ft / 146 m (AMSL)
30 DME DV 111.55 MHz 18 nm / 33 km - - - 466 ft / 142 m (AMSL)

Popular Alternatives